sensor_id;sensor_type;location;lat;lon;timestamp;pressure;altitude;pressure_sealevel;temperature
69420;BMP280;56612;52.030;113.524;2023-04-25T00:00:28;93335.22;;;0.01
69420;BMP280;56612;52.030;113.524;2023-04-25T00:03:32;93339.84;;;0.12
69420;BMP280;56612;52.030;113.524;2023-04-25T00:06:37;93327.22;;;0.32
69420;BMP280;56612;52.030;113.524;2023-04-25T00:09:41;93324.69;;;0.57
69420;BMP280;56612;52.030;113.524;2023-04-25T00:12:45;93317.97;;;0.77
69420;BMP280;56612;52.030;113.524;2023-04-25T00:15:49;93315.22;;;0.99
69420;BMP280;56612;52.030;113.524;2023-04-25T00:18:53;93321.59;;;1.19
69420;BMP280;56612;52.030;113.524;2023-04-25T00:21:57;93315.25;;;1.36
69420;BMP280;56612;52.030;113.524;2023-04-25T00:25:01;93302.13;;;1.61
69420;BMP280;56612;52.030;113.524;2023-04-25T00:28:07;93306.53;;;1.82
69420;BMP280;56612;52.030;113.524;2023-04-25T00:31:10;93300.59;;;1.95
69420;BMP280;56612;52.030;113.524;2023-04-25T00:34:15;93300.75;;;2.11
69420;BMP280;56612;52.030;113.524;2023-04-25T00:37:18;93289.09;;;2.28
69420;BMP280;56612;52.030;113.524;2023-04-25T00:40:23;93292.19;;;2.38
69420;BMP280;56612;52.030;113.524;2023-04-25T00:43:28;93295.47;;;2.64
69420;BMP280;56612;52.030;113.524;2023-04-25T00:46:32;93280.13;;;2.88
69420;BMP280;56612;52.030;113.524;2023-04-25T00:49:37;93281.16;;;3.24
69420;BMP280;56612;52.030;113.524;2023-04-25T00:52:43;93277.81;;;3.53
69420;BMP280;56612;52.030;113.524;2023-04-25T00:55:47;93272.66;;;3.55
69420;BMP280;56612;52.030;113.524;2023-04-25T00:58:54;93278.41;;;3.81
69420;BMP280;56612;52.030;113.524;2023-04-25T01:01:59;93264.56;;;4.12
69420;BMP280;56612;52.030;113.524;2023-04-25T01:05:04;93266.16;;;4.35
69420;BMP280;56612;52.030;113.524;2023-04-25T01:08:10;93267.09;;;4.41
69420;BMP280;56612;52.030;113.524;2023-04-25T01:11:13;93256.47;;;4.57
69420;BMP280;56612;52.030;113.524;2023-04-25T01:14:17;93236.88;;;4.46
69420;BMP280;56612;52.030;113.524;2023-04-25T01:17:21;93237.25;;;4.72
69420;BMP280;56612;52.030;113.524;2023-04-25T01:20:26;93238.06;;;5.10
69420;BMP280;56612;52.030;113.524;2023-04-25T01:23:32;93225.78;;;5.37
69420;BMP280;56612;52.030;113.524;2023-04-25T01:26:37;93224.00;;;5.42
69420;BMP280;56612;52.030;113.524;2023-04-25T01:29:41;93218.06;;;5.81
69420;BMP280;56612;52.030;113.524;2023-04-25T01:32:47;93207.59;;;5.65
69420;BMP280;56612;52.030;113.524;2023-04-25T01:35:51;93198.56;;;5.92
69420;BMP280;56612;52.030;113.524;2023-04-25T01:38:56;93193.44;;;6.57
69420;BMP280;56612;52.030;113.524;2023-04-25T01:42:00;93180.69;;;7.43
69420;BMP280;56612;52.030;113.524;2023-04-25T01:45:06;93175.50;;;8.25
69420;BMP280;56612;52.030;113.524;2023-04-25T01:48:12;93176.47;;;8.96
69420;BMP280;56612;52.030;113.524;2023-04-25T01:51:18;93166.47;;;9.28
69420;BMP280;56612;52.030;113.524;2023-04-25T01:54:22;93162.75;;;9.43
69420;BMP280;56612;52.030;113.524;2023-04-25T01:57:26;93158.69;;;9.74
69420;BMP280;56612;52.030;113.524;2023-04-25T02:00:30;93160.72;;;9.78
69420;BMP280;56612;52.030;113.524;2023-04-25T02:03:34;93147.56;;;9.88
69420;BMP280;56612;52.030;113.524;2023-04-25T02:06:43;93145.75;;;9.99
69420;BMP280;56612;52.030;113.524;2023-04-25T02:09:47;93137.63;;;10.31
69420;BMP280;56612;52.030;113.524;2023-04-25T02:12:52;93135.44;;;10.19
69420;BMP280;56612;52.030;113.524;2023-04-25T02:16:17;93125.22;;;10.07
69420;BMP280;56612;52.030;113.524;2023-04-25T02:19:22;93125.25;;;10.53
69420;BMP280;56612;52.030;113.524;2023-04-25T02:22:25;93112.56;;;11.65
69420;BMP280;56612;52.030;113.524;2023-04-25T02:25:30;93103.31;;;12.62
69420;BMP280;56612;52.030;113.524;2023-04-25T02:28:34;93099.19;;;12.49
69420;BMP280;56612;52.030;113.524;2023-04-25T02:31:39;93098.34;;;12.20
69420;BMP280;56612;52.030;113.524;2023-04-25T02:34:42;93089.47;;;12.02
69420;BMP280;56612;52.030;113.524;2023-04-25T02:37:45;93082.94;;;12.25
69420;BMP280;56612;52.030;113.524;2023-04-25T02:40:48;93077.50;;;12.11
69420;BMP280;56612;52.030;113.524;2023-04-25T02:43:52;93072.91;;;12.25
69420;BMP280;56612;52.030;113.524;2023-04-25T02:46:56;93064.34;;;11.63
69420;BMP280;56612;52.030;113.524;2023-04-25T02:50:00;93054.06;;;12.11
69420;BMP280;56612;52.030;113.524;2023-04-25T02:53:03;93046.47;;;11.77
69420;BMP280;56612;52.030;113.524;2023-04-25T02:56:12;93040.63;;;11.24
69420;BMP280;56612;52.030;113.524;2023-04-25T02:59:16;93033.31;;;11.31
69420;BMP280;56612;52.030;113.524;2023-04-25T03:02:20;93031.31;;;11.34
69420;BMP280;56612;52.030;113.524;2023-04-25T03:05:23;93031.41;;;11.44
69420;BMP280;56612;52.030;113.524;2023-04-25T03:08:27;93020.13;;;12.48
69420;BMP280;56612;52.030;113.524;2023-04-25T03:11:40;93011.63;;;13.07
69420;BMP280;56612;52.030;113.524;2023-04-25T03:14:44;93017.69;;;13.29
69420;BMP280;56612;52.030;113.524;2023-04-25T03:17:49;92995.50;;;14.12
69420;BMP280;56612;52.030;113.524;2023-04-25T03:20:53;93004.25;;;14.17
69420;BMP280;56612;52.030;113.524;2023-04-25T03:23:57;92985.97;;;14.54
69420;BMP280;56612;52.030;113.524;2023-04-25T03:27:01;92976.50;;;14.69
69420;BMP280;56612;52.030;113.524;2023-04-25T03:30:06;92976.59;;;14.45
69420;BMP280;56612;52.030;113.524;2023-04-25T03:33:12;92957.25;;;14.03
69420;BMP280;56612;52.030;113.524;2023-04-25T03:36:16;92967.66;;;14.85
69420;BMP280;56612;52.030;113.524;2023-04-25T03:39:20;92951.22;;;14.05
69420;BMP280;56612;52.030;113.524;2023-04-25T03:42:26;92944.53;;;13.82
69420;BMP280;56612;52.030;113.524;2023-04-25T03:45:30;92933.69;;;14.26
69420;BMP280;56612;52.030;113.524;2023-04-25T03:48:34;92922.19;;;14.46
69420;BMP280;56612;52.030;113.524;2023-04-25T03:51:38;92909.56;;;14.02
69420;BMP280;56612;52.030;113.524;2023-04-25T03:54:41;92915.03;;;13.61
69420;BMP280;56612;52.030;113.524;2023-04-25T03:57:52;92908.81;;;14.20
69420;BMP280;56612;52.030;113.524;2023-04-25T04:00:55;92899.81;;;14.74
69420;BMP280;56612;52.030;113.524;2023-04-25T04:03:59;92888.44;;;16.14
69420;BMP280;56612;52.030;113.524;2023-04-25T04:07:04;92875.66;;;17.07
69420;BMP280;56612;52.030;113.524;2023-04-25T04:10:10;92873.97;;;16.38
69420;BMP280;56612;52.030;113.524;2023-04-25T04:13:15;92867.53;;;15.56
69420;BMP280;56612;52.030;113.524;2023-04-25T04:16:20;92861.88;;;15.82
69420;BMP280;56612;52.030;113.524;2023-04-25T04:19:24;92848.03;;;16.60
69420;BMP280;56612;52.030;113.524;2023-04-25T04:22:57;92848.16;;;16.53
69420;BMP280;56612;52.030;113.524;2023-04-25T04:26:00;92829.72;;;16.21
69420;BMP280;56612;52.030;113.524;2023-04-25T04:29:37;92826.03;;;15.94
69420;BMP280;56612;52.030;113.524;2023-04-25T04:32:51;92819.84;;;16.03
69420;BMP280;56612;52.030;113.524;2023-04-25T04:35:55;92816.59;;;15.95
69420;BMP280;56612;52.030;113.524;2023-04-25T04:38:59;92812.63;;;17.23
69420;BMP280;56612;52.030;113.524;2023-04-25T04:42:25;92810.69;;;17.19
69420;BMP280;56612;52.030;113.524;2023-04-25T04:45:46;92791.09;;;17.19
69420;BMP280;56612;52.030;113.524;2023-04-25T04:49:09;92781.56;;;17.59
69420;BMP280;56612;52.030;113.524;2023-04-25T04:52:30;92766.94;;;17.46
69420;BMP280;56612;52.030;113.524;2023-04-25T04:55:54;92749.09;;;17.94
69420;BMP280;56612;52.030;113.524;2023-04-25T04:59:25;92746.69;;;18.95
69420;BMP280;56612;52.030;113.524;2023-04-25T05:02:56;92748.25;;;18.86
69420;BMP280;56612;52.030;113.524;2023-04-25T05:06:27;92739.75;;;19.27
69420;BMP280;56612;52.030;113.524;2023-04-25T05:09:49;92741.66;;;19.06
69420;BMP280;56612;52.030;113.524;2023-04-25T05:13:21;92730.97;;;19.49
69420;BMP280;56612;52.030;113.524;2023-04-25T05:17:00;92718.16;;;20.97
69420;BMP280;56612;52.030;113.524;2023-04-25T05:20:29;92722.63;;;21.98
69420;BMP280;56612;52.030;113.524;2023-04-25T05:23:55;92710.19;;;21.49
69420;BMP280;56612;52.030;113.524;2023-04-25T05:27:31;92692.53;;;20.73
69420;BMP280;56612;52.030;113.524;2023-04-25T05:30:54;92690.59;;;20.08
69420;BMP280;56612;52.030;113.524;2023-04-25T05:34:04;92678.09;;;20.37
69420;BMP280;56612;52.030;113.524;2023-04-25T05:37:16;92664.50;;;22.23
69420;BMP280;56612;52.030;113.524;2023-04-25T05:40:29;92653.03;;;22.37
69420;BMP280;56612;52.030;113.524;2023-04-25T05:43:53;92648.56;;;21.25
69420;BMP280;56612;52.030;113.524;2023-04-25T05:47:28;92641.66;;;21.99
69420;BMP280;56612;52.030;113.524;2023-04-25T05:50:46;92621.56;;;22.57
69420;BMP280;56612;52.030;113.524;2023-04-25T05:54:07;92616.34;;;22.67
69420;BMP280;56612;52.030;113.524;2023-04-25T05:57:25;92602.03;;;23.72
69420;BMP280;56612;52.030;113.524;2023-04-25T06:00:30;92581.78;;;24.09
69420;BMP280;56612;52.030;113.524;2023-04-25T06:03:35;92591.53;;;25.11
69420;BMP280;56612;52.030;113.524;2023-04-25T06:06:41;92575.78;;;24.06
69420;BMP280;56612;52.030;113.524;2023-04-25T06:09:45;92585.25;;;23.94
69420;BMP280;56612;52.030;113.524;2023-04-25T06:12:48;92575.50;;;24.12
69420;BMP280;56612;52.030;113.524;2023-04-25T06:15:53;92558.41;;;23.28
69420;BMP280;56612;52.030;113.524;2023-04-25T06:18:57;92544.66;;;22.86
69420;BMP280;56612;52.030;113.524;2023-04-25T06:22:02;92542.78;;;23.55
69420;BMP280;56612;52.030;113.524;2023-04-25T06:25:09;92538.88;;;26.31
69420;BMP280;56612;52.030;113.524;2023-04-25T06:28:13;92542.38;;;27.50
69420;BMP280;56612;52.030;113.524;2023-04-25T06:31:18;92527.63;;;27.02
69420;BMP280;56612;52.030;113.524;2023-04-25T06:34:23;92519.81;;;28.01
69420;BMP280;56612;52.030;113.524;2023-04-25T06:37:28;92501.41;;;28.59
69420;BMP280;56612;52.030;113.524;2023-04-25T06:40:31;92492.41;;;27.90
69420;BMP280;56612;52.030;113.524;2023-04-25T06:43:35;92501.16;;;27.92
69420;BMP280;56612;52.030;113.524;2023-04-25T06:47:02;92487.38;;;25.63
69420;BMP280;56612;52.030;113.524;2023-04-25T06:50:07;92480.19;;;25.58
69420;BMP280;56612;52.030;113.524;2023-04-25T06:53:12;92473.13;;;27.49
69420;BMP280;56612;52.030;113.524;2023-04-25T06:56:18;92456.72;;;28.69
69420;BMP280;56612;52.030;113.524;2023-04-25T06:59:32;92459.84;;;26.46
69420;BMP280;56612;52.030;113.524;2023-04-25T07:02:37;92452.53;;;25.39
69420;BMP280;56612;52.030;113.524;2023-04-25T07:05:41;92450.53;;;25.96
69420;BMP280;56612;52.030;113.524;2023-04-25T07:08:47;92435.22;;;26.78
69420;BMP280;56612;52.030;113.524;2023-04-25T07:11:53;92430.66;;;28.19
69420;BMP280;56612;52.030;113.524;2023-04-25T07:14:56;92420.94;;;30.34
69420;BMP280;56612;52.030;113.524;2023-04-25T07:18:00;92420.13;;;30.26
69420;BMP280;56612;52.030;113.524;2023-04-25T07:21:05;92414.63;;;30.87
69420;BMP280;56612;52.030;113.524;2023-04-25T07:24:10;92416.06;;;31.61
69420;BMP280;56612;52.030;113.524;2023-04-25T07:27:19;92404.97;;;32.88
69420;BMP280;56612;52.030;113.524;2023-04-25T07:30:51;92391.34;;;32.47
69420;BMP280;56612;52.030;113.524;2023-04-25T07:33:54;92385.44;;;31.39
69420;BMP280;56612;52.030;113.524;2023-04-25T07:37:01;92384.75;;;30.12
69420;BMP280;56612;52.030;113.524;2023-04-25T07:40:12;92365.31;;;30.48
69420;BMP280;56612;52.030;113.524;2023-04-25T07:43:20;92365.16;;;29.26
69420;BMP280;56612;52.030;113.524;2023-04-25T07:46:33;92350.75;;;26.48
69420;BMP280;56612;52.030;113.524;2023-04-25T07:49:39;92351.31;;;25.62
69420;BMP280;56612;52.030;113.524;2023-04-25T07:52:43;92344.38;;;26.84
69420;BMP280;56612;52.030;113.524;2023-04-25T07:55:53;92340.84;;;27.47
69420;BMP280;56612;52.030;113.524;2023-04-25T07:58:56;92323.72;;;27.87
69420;BMP280;56612;52.030;113.524;2023-04-25T08:02:00;92326.19;;;28.29
69420;BMP280;56612;52.030;113.524;2023-04-25T08:05:06;92317.25;;;28.67
69420;BMP280;56612;52.030;113.524;2023-04-25T08:08:11;92309.53;;;28.98
69420;BMP280;56612;52.030;113.524;2023-04-25T08:11:15;92300.78;;;30.37
69420;BMP280;56612;52.030;113.524;2023-04-25T08:14:19;92295.91;;;31.04
69420;BMP280;56612;52.030;113.524;2023-04-25T08:17:23;92293.75;;;30.72
69420;BMP280;56612;52.030;113.524;2023-04-25T08:20:28;92274.69;;;30.94
69420;BMP280;56612;52.030;113.524;2023-04-25T08:23:34;92276.34;;;27.67
69420;BMP280;56612;52.030;113.524;2023-04-25T08:26:44;92267.00;;;26.19
69420;BMP280;56612;52.030;113.524;2023-04-25T08:29:50;92261.78;;;28.18
69420;BMP280;56612;52.030;113.524;2023-04-25T08:32:54;92263.22;;;28.92
69420;BMP280;56612;52.030;113.524;2023-04-25T08:36:14;92260.91;;;29.22
69420;BMP280;56612;52.030;113.524;2023-04-25T08:39:37;92249.69;;;29.69
69420;BMP280;56612;52.030;113.524;2023-04-25T08:43:00;92243.94;;;28.92
69420;BMP280;56612;52.030;113.524;2023-04-25T08:46:07;92251.78;;;28.04
69420;BMP280;56612;52.030;113.524;2023-04-25T08:49:20;92240.09;;;27.75
69420;BMP280;56612;52.030;113.524;2023-04-25T08:52:27;92238.31;;;26.50
69420;BMP280;56612;52.030;113.524;2023-04-25T08:55:37;92228.94;;;24.69
69420;BMP280;56612;52.030;113.524;2023-04-25T08:58:44;92220.84;;;23.83
69420;BMP280;56612;52.030;113.524;2023-04-25T09:01:50;92221.19;;;22.71
69420;BMP280;56612;52.030;113.524;2023-04-25T09:04:56;92220.91;;;22.50
69420;BMP280;56612;52.030;113.524;2023-04-25T09:08:01;92213.84;;;24.70
69420;BMP280;56612;52.030;113.524;2023-04-25T09:11:07;92213.63;;;24.38
69420;BMP280;56612;52.030;113.524;2023-04-25T09:14:17;92202.63;;;23.29
69420;BMP280;56612;52.030;113.524;2023-04-25T09:17:41;92187.94;;;22.42
69420;BMP280;56612;52.030;113.524;2023-04-25T09:20:48;92191.22;;;21.58
69420;BMP280;56612;52.030;113.524;2023-04-25T09:23:54;92194.78;;;21.08
69420;BMP280;56612;52.030;113.524;2023-04-25T09:26:59;92187.50;;;20.40
69420;BMP280;56612;52.030;113.524;2023-04-25T09:30:03;92185.84;;;20.30
69420;BMP280;56612;52.030;113.524;2023-04-25T09:33:31;92186.31;;;20.68
69420;BMP280;56612;52.030;113.524;2023-04-25T09:36:36;92180.41;;;19.97
69420;BMP280;56612;52.030;113.524;2023-04-25T09:40:18;92175.28;;;18.78
69420;BMP280;56612;52.030;113.524;2023-04-25T09:43:36;92173.91;;;18.38
69420;BMP280;56612;52.030;113.524;2023-04-25T09:46:41;92167.00;;;18.22
69420;BMP280;56612;52.030;113.524;2023-04-25T09:49:54;92170.34;;;18.02
69420;BMP280;56612;52.030;113.524;2023-04-25T09:53:05;92170.31;;;17.81
69420;BMP280;56612;52.030;113.524;2023-04-25T09:56:32;92165.63;;;17.57
69420;BMP280;56612;52.030;113.524;2023-04-25T09:59:53;92157.50;;;17.57
69420;BMP280;56612;52.030;113.524;2023-04-25T10:03:01;92159.88;;;17.69
69420;BMP280;56612;52.030;113.524;2023-04-25T10:06:31;92154.22;;;17.77
69420;BMP280;56612;52.030;113.524;2023-04-25T10:09:38;92147.38;;;17.80
69420;BMP280;56612;52.030;113.524;2023-04-25T10:12:45;92148.19;;;17.97
69420;BMP280;56612;52.030;113.524;2023-04-25T10:15:48;92150.31;;;17.72
69420;BMP280;56612;52.030;113.524;2023-04-25T10:18:53;92145.81;;;17.64
69420;BMP280;56612;52.030;113.524;2023-04-25T10:22:06;92141.78;;;17.41
69420;BMP280;56612;52.030;113.524;2023-04-25T10:25:11;92142.50;;;17.16
69420;BMP280;56612;52.030;113.524;2023-04-25T10:28:15;92135.34;;;17.07
69420;BMP280;56612;52.030;113.524;2023-04-25T10:31:18;92120.88;;;16.93
69420;BMP280;56612;52.030;113.524;2023-04-25T10:34:44;92115.25;;;16.77
69420;BMP280;56612;52.030;113.524;2023-04-25T10:38:10;92112.53;;;16.52
69420;BMP280;56612;52.030;113.524;2023-04-25T10:41:13;92111.13;;;16.28
69420;BMP280;56612;52.030;113.524;2023-04-25T10:44:17;92112.69;;;16.19
69420;BMP280;56612;52.030;113.524;2023-04-25T10:47:36;92109.03;;;16.04
69420;BMP280;56612;52.030;113.524;2023-04-25T10:50:46;92099.72;;;15.70
69420;BMP280;56612;52.030;113.524;2023-04-25T10:54:08;92103.31;;;15.60
69420;BMP280;56612;52.030;113.524;2023-04-25T10:57:43;92103.63;;;15.46
69420;BMP280;56612;52.030;113.524;2023-04-25T11:00:49;92098.16;;;15.19
69420;BMP280;56612;52.030;113.524;2023-04-25T11:03:59;92093.88;;;14.99
69420;BMP280;56612;52.030;113.524;2023-04-25T11:10:09;92092.34;;;14.73
69420;BMP280;56612;52.030;113.524;2023-04-25T11:13:13;92079.78;;;14.62
69420;BMP280;56612;52.030;113.524;2023-04-25T11:16:17;92096.25;;;14.44
69420;BMP280;56612;52.030;113.524;2023-04-25T11:19:32;92087.69;;;14.33
69420;BMP280;56612;52.030;113.524;2023-04-25T11:22:35;92083.13;;;14.25
69420;BMP280;56612;52.030;113.524;2023-04-25T11:25:38;92096.81;;;14.11
69420;BMP280;56612;52.030;113.524;2023-04-25T11:28:45;92089.50;;;14.06
69420;BMP280;56612;52.030;113.524;2023-04-25T11:31:50;92093.16;;;13.88
69420;BMP280;56612;52.030;113.524;2023-04-25T11:34:54;92085.25;;;13.78
69420;BMP280;56612;52.030;113.524;2023-04-25T11:37:58;92091.31;;;13.76
69420;BMP280;56612;52.030;113.524;2023-04-25T11:41:01;92092.75;;;13.69
69420;BMP280;56612;52.030;113.524;2023-04-25T11:44:06;92094.91;;;13.60
69420;BMP280;56612;52.030;113.524;2023-04-25T11:47:10;92101.06;;;13.53
69420;BMP280;56612;52.030;113.524;2023-04-25T11:50:14;92102.53;;;13.44
69420;BMP280;56612;52.030;113.524;2023-04-25T11:53:18;92098.47;;;13.47
69420;BMP280;56612;52.030;113.524;2023-04-25T11:56:22;92100.56;;;13.40
69420;BMP280;56612;52.030;113.524;2023-04-25T11:59:26;92098.66;;;13.30
69420;BMP280;56612;52.030;113.524;2023-04-25T12:02:30;92094.06;;;13.25
69420;BMP280;56612;52.030;113.524;2023-04-25T12:05:33;92098.16;;;13.18
69420;BMP280;56612;52.030;113.524;2023-04-25T12:08:36;92099.66;;;13.07
69420;BMP280;56612;52.030;113.524;2023-04-25T12:14:47;92075.59;;;13.01
69420;BMP280;56612;52.030;113.524;2023-04-25T12:17:54;92077.19;;;12.81
69420;BMP280;56612;52.030;113.524;2023-04-25T12:20:58;92075.31;;;12.66
69420;BMP280;56612;52.030;113.524;2023-04-25T12:24:28;92077.41;;;12.61
69420;BMP280;56612;52.030;113.524;2023-04-25T12:27:32;92076.09;;;12.56
69420;BMP280;56612;52.030;113.524;2023-04-25T12:34:05;92077.41;;;12.61
69420;BMP280;56612;52.030;113.524;2023-04-25T12:37:09;92084.22;;;12.48
69420;BMP280;56612;52.030;113.524;2023-04-25T12:40:13;92090.47;;;12.26
69420;BMP280;56612;52.030;113.524;2023-04-25T12:43:17;92089.97;;;12.07
69420;BMP280;56612;52.030;113.524;2023-04-25T12:46:22;92075.38;;;11.92
69420;BMP280;56612;52.030;113.524;2023-04-25T12:49:28;92082.13;;;11.83
69420;BMP280;56612;52.030;113.524;2023-04-25T12:52:32;92074.13;;;11.81
69420;BMP280;56612;52.030;113.524;2023-04-25T12:55:36;92080.06;;;11.85
69420;BMP280;56612;52.030;113.524;2023-04-25T12:58:39;92067.41;;;11.82
69420;BMP280;56612;52.030;113.524;2023-04-25T13:01:42;92078.13;;;11.82
69420;BMP280;56612;52.030;113.524;2023-04-25T13:04:48;92069.59;;;11.57
69420;BMP280;56612;52.030;113.524;2023-04-25T13:07:53;92068.38;;;11.34
69420;BMP280;56612;52.030;113.524;2023-04-25T13:10:56;92059.84;;;11.17
69420;BMP280;56612;52.030;113.524;2023-04-25T13:14:00;92059.91;;;11.01
69420;BMP280;56612;52.030;113.524;2023-04-25T13:17:05;92061.25;;;10.98
69420;BMP280;56612;52.030;113.524;2023-04-25T13:20:09;92063.97;;;10.94
69420;BMP280;56612;52.030;113.524;2023-04-25T13:23:12;92055.97;;;10.83
69420;BMP280;56612;52.030;113.524;2023-04-25T13:26:16;92057.31;;;10.70
69420;BMP280;56612;52.030;113.524;2023-04-25T13:29:20;92057.38;;;10.62
69420;BMP280;56612;52.030;113.524;2023-04-25T13:32:23;92055.41;;;10.52
69420;BMP280;56612;52.030;113.524;2023-04-25T13:35:26;92052.72;;;10.46
69420;BMP280;56612;52.030;113.524;2023-04-25T13:38:29;92055.41;;;10.48
69420;BMP280;56612;52.030;113.524;2023-04-25T13:41:34;92056.13;;;10.35
69420;BMP280;56612;52.030;113.524;2023-04-25T13:44:38;92056.13;;;10.24
69420;BMP280;56612;52.030;113.524;2023-04-25T13:47:41;92052.81;;;10.06
69420;BMP280;56612;52.030;113.524;2023-04-25T13:50:44;92054.81;;;9.87
69420;BMP280;56612;52.030;113.524;2023-04-25T13:53:48;92053.47;;;9.62
69420;BMP280;56612;52.030;113.524;2023-04-25T13:56:52;92060.78;;;9.47
69420;BMP280;56612;52.030;113.524;2023-04-25T14:00:02;92064.78;;;9.36
69420;BMP280;56612;52.030;113.524;2023-04-25T14:03:12;92060.09;;;9.20
69420;BMP280;56612;52.030;113.524;2023-04-25T14:06:16;92060.06;;;9.08
69420;BMP280;56612;52.030;113.524;2023-04-25T14:09:26;92060.00;;;8.96
69420;BMP280;56612;52.030;113.524;2023-04-25T14:12:30;92056.63;;;8.83
69420;BMP280;56612;52.030;113.524;2023-04-25T14:15:34;92059.91;;;8.73
69420;BMP280;56612;52.030;113.524;2023-04-25T14:18:37;92051.84;;;8.59
69420;BMP280;56612;52.030;113.524;2023-04-25T14:21:40;92057.16;;;8.55
69420;BMP280;56612;52.030;113.524;2023-04-25T14:24:44;92057.78;;;8.47
69420;BMP280;56612;52.030;113.524;2023-04-25T14:27:48;92047.75;;;8.40
69420;BMP280;56612;52.030;113.524;2023-04-25T14:30:52;92054.97;;;8.19
69420;BMP280;56612;52.030;113.524;2023-04-25T14:33:56;92047.66;;;8.19
69420;BMP280;56612;52.030;113.524;2023-04-25T14:37:00;92052.97;;;8.19
69420;BMP280;56612;52.030;113.524;2023-04-25T14:40:04;92036.28;;;8.11
69420;BMP280;56612;52.030;113.524;2023-04-25T14:43:07;92050.88;;;8.04
69420;BMP280;56612;52.030;113.524;2023-04-25T14:46:11;92040.78;;;7.88
69420;BMP280;56612;52.030;113.524;2023-04-25T14:49:14;92028.06;;;7.80
69420;BMP280;56612;52.030;113.524;2023-04-25T14:52:17;92028.06;;;7.80
69420;BMP280;56612;52.030;113.524;2023-04-25T14:55:21;92029.38;;;7.73
69420;BMP280;56612;52.030;113.524;2023-04-25T14:58:24;92018.00;;;7.67
69420;BMP280;56612;52.030;113.524;2023-04-25T15:01:29;92013.94;;;7.59
69420;BMP280;56612;52.030;113.524;2023-04-25T15:04:32;92027.84;;;7.50
69420;BMP280;56612;52.030;113.524;2023-04-25T15:07:36;92023.69;;;7.35
69420;BMP280;56612;52.030;113.524;2023-04-25T15:10:38;92011.66;;;7.21
69420;BMP280;56612;52.030;113.524;2023-04-25T15:13:42;92020.94;;;7.22
69420;BMP280;56612;52.030;113.524;2023-04-25T15:16:46;92014.91;;;7.18
69420;BMP280;56612;52.030;113.524;2023-04-25T15:19:50;92012.78;;;7.04
69420;BMP280;56612;52.030;113.524;2023-04-25T15:22:53;92023.31;;;6.96
69420;BMP280;56612;52.030;113.524;2023-04-25T15:25:57;92019.41;;;7.01
69420;BMP280;56612;52.030;113.524;2023-04-25T15:29:00;92016.69;;;6.97
69420;BMP280;56612;52.030;113.524;2023-04-25T15:32:06;92019.28;;;6.91
69420;BMP280;56612;52.030;113.524;2023-04-25T15:35:10;92022.59;;;6.91
69420;BMP280;56612;52.030;113.524;2023-04-25T15:38:14;92020.41;;;6.76
69420;BMP280;56612;52.030;113.524;2023-04-25T15:41:17;92026.41;;;6.76
69420;BMP280;56612;52.030;113.524;2023-04-25T15:44:21;92027.56;;;6.61
69420;BMP280;56612;52.030;113.524;2023-04-25T15:47:25;92033.94;;;6.42
69420;BMP280;56612;52.030;113.524;2023-04-25T15:50:28;92023.81;;;6.28
69420;BMP280;56612;52.030;113.524;2023-04-25T15:53:32;92027.63;;;6.15
69420;BMP280;56612;52.030;113.524;2023-04-25T15:56:35;92018.06;;;5.95
69420;BMP280;56612;52.030;113.524;2023-04-25T15:59:39;92026.75;;;6.02
69420;BMP280;56612;52.030;113.524;2023-04-25T16:02:44;92008.81;;;5.98
69420;BMP280;56612;52.030;113.524;2023-04-25T16:05:49;92015.34;;;5.93
69420;BMP280;56612;52.030;113.524;2023-04-25T16:08:52;92014.59;;;5.85
69420;BMP280;56612;52.030;113.524;2023-04-25T16:11:56;92015.97;;;5.88
69420;BMP280;56612;52.030;113.524;2023-04-25T16:15:00;92014.59;;;5.85
69420;BMP280;56612;52.030;113.524;2023-04-25T16:18:04;92018.63;;;5.90
69420;BMP280;56612;52.030;113.524;2023-04-25T16:21:08;92016.28;;;5.66
69420;BMP280;56612;52.030;113.524;2023-04-25T16:24:12;92026.09;;;5.59
69420;BMP280;56612;52.030;113.524;2023-04-25T16:27:15;92023.28;;;5.49
69420;BMP280;56612;52.030;113.524;2023-04-25T16:30:19;92017.25;;;5.43
69420;BMP280;56612;52.030;113.524;2023-04-25T16:33:22;92019.84;;;5.40
69420;BMP280;56612;52.030;113.524;2023-04-25T16:36:26;92019.13;;;5.38
69420;BMP280;56612;52.030;113.524;2023-04-25T16:39:29;92012.56;;;5.41
69420;BMP280;56612;52.030;113.524;2023-04-25T16:42:33;92017.25;;;5.43
69420;BMP280;56612;52.030;113.524;2023-04-25T16:45:37;92018.47;;;5.37
69420;BMP280;56612;52.030;113.524;2023-04-25T16:48:40;92024.94;;;5.30
69420;BMP280;56612;52.030;113.524;2023-04-25T16:51:45;92020.09;;;5.19
69420;BMP280;56612;52.030;113.524;2023-04-25T16:54:49;92019.25;;;5.08
69420;BMP280;56612;52.030;113.524;2023-04-25T16:57:53;92027.31;;;5.14
69420;BMP280;56612;52.030;113.524;2023-04-25T17:00:56;92028.63;;;5.13
69420;BMP280;56612;52.030;113.524;2023-04-25T17:04:00;92030.63;;;5.15
69420;BMP280;56612;52.030;113.524;2023-04-25T17:07:04;92019.31;;;5.10
69420;BMP280;56612;52.030;113.524;2023-04-25T17:10:07;92025.75;;;5.01
69420;BMP280;56612;52.030;113.524;2023-04-25T17:13:11;92030.09;;;4.86
69420;BMP280;56612;52.030;113.524;2023-04-25T17:16:17;92018.03;;;4.79
69420;BMP280;56612;52.030;113.524;2023-04-25T17:19:25;92023.78;;;4.67
69420;BMP280;56612;52.030;113.524;2023-04-25T17:22:29;92021.13;;;4.67
69420;BMP280;56612;52.030;113.524;2023-04-25T17:25:33;92027.19;;;4.72
69420;BMP280;56612;52.030;113.524;2023-04-25T17:28:37;92035.75;;;4.70
69420;BMP280;56612;52.030;113.524;2023-04-25T17:31:40;92030.25;;;4.60
69420;BMP280;56612;52.030;113.524;2023-04-25T17:34:45;92026.78;;;4.52
69420;BMP280;56612;52.030;113.524;2023-04-25T17:37:49;92026.44;;;4.35
69420;BMP280;56612;52.030;113.524;2023-04-25T17:40:55;92029.66;;;4.32
69420;BMP280;56612;52.030;113.524;2023-04-25T17:43:58;92022.22;;;4.24